sensor_id;sensor_type;location;lat;lon;timestamp;pressure;altitude;pressure_sealevel;temperature;humidity
31346;BME280;21711;49.708;18.568;2024-02-23T00:01:52;95403.50;;;10.24;79.14
31346;BME280;21711;49.708;18.568;2024-02-23T00:04:19;95417.94;;;10.44;79.88
31346;BME280;21711;49.708;18.568;2024-02-23T00:06:47;95410.56;;;10.50;79.29
31346;BME280;21711;49.708;18.568;2024-02-23T00:09:14;95404.97;;;10.51;79.24
31346;BME280;21711;49.708;18.568;2024-02-23T00:11:41;95409.69;;;10.46;79.32
31346;BME280;21711;49.708;18.568;2024-02-23T00:14:13;95402.84;;;10.36;79.80
31346;BME280;21711;49.708;18.568;2024-02-23T00:16:41;95410.63;;;10.23;80.02
31346;BME280;21711;49.708;18.568;2024-02-23T00:19:09;95411.22;;;10.38;79.09
31346;BME280;21711;49.708;18.568;2024-02-23T00:21:37;95407.63;;;10.43;79.31
31346;BME280;21711;49.708;18.568;2024-02-23T00:24:09;95410.06;;;10.18;80.38
31346;BME280;21711;49.708;18.568;2024-02-23T00:26:36;95409.59;;;10.07;80.54
31346;BME280;21711;49.708;18.568;2024-02-23T00:29:04;95421.09;;;10.11;80.53
31346;BME280;21711;49.708;18.568;2024-02-23T00:31:31;95407.25;;;10.23;80.68
31346;BME280;21711;49.708;18.568;2024-02-23T00:33:58;95411.28;;;10.20;80.23
31346;BME280;21711;49.708;18.568;2024-02-23T00:36:26;95420.28;;;10.28;80.36
31346;BME280;21711;49.708;18.568;2024-02-23T00:38:53;95415.34;;;10.18;80.61
31346;BME280;21711;49.708;18.568;2024-02-23T00:41:20;95402.03;;;9.96;82.00
31346;BME280;21711;49.708;18.568;2024-02-23T00:43:48;95399.50;;;10.09;81.48
31346;BME280;21711;49.708;18.568;2024-02-23T00:46:15;95412.41;;;10.02;81.85
31346;BME280;21711;49.708;18.568;2024-02-23T00:48:43;95414.75;;;10.03;81.53
31346;BME280;21711;49.708;18.568;2024-02-23T00:51:10;95418.63;;;9.97;82.32
31346;BME280;21711;49.708;18.568;2024-02-23T00:53:38;95408.72;;;9.94;82.34
31346;BME280;21711;49.708;18.568;2024-02-23T00:56:06;95408.84;;;9.97;81.49
31346;BME280;21711;49.708;18.568;2024-02-23T00:58:33;95403.84;;;10.13;80.67
31346;BME280;21711;49.708;18.568;2024-02-23T01:01:01;95399.66;;;10.12;80.20
31346;BME280;21711;49.708;18.568;2024-02-23T01:03:28;95408.38;;;10.04;81.52
31346;BME280;21711;49.708;18.568;2024-02-23T01:05:55;95410.81;;;10.18;79.96
31346;BME280;21711;49.708;18.568;2024-02-23T01:08:23;95417.47;;;10.33;79.23
31346;BME280;21711;49.708;18.568;2024-02-23T01:10:50;95404.44;;;10.19;79.52
31346;BME280;21711;49.708;18.568;2024-02-23T01:13:17;95403.69;;;10.19;80.30
31346;BME280;21711;49.708;18.568;2024-02-23T01:15:45;95411.28;;;10.11;80.76
31346;BME280;21711;49.708;18.568;2024-02-23T01:18:12;95420.63;;;10.18;80.38
31346;BME280;21711;49.708;18.568;2024-02-23T01:20:39;95399.19;;;10.10;81.10
31346;BME280;21711;49.708;18.568;2024-02-23T01:23:07;95407.28;;;10.05;80.82
31346;BME280;21711;49.708;18.568;2024-02-23T01:25:35;95411.94;;;10.08;81.15
31346;BME280;21711;49.708;18.568;2024-02-23T01:28:02;95412.03;;;10.21;80.13
31346;BME280;21711;49.708;18.568;2024-02-23T01:30:30;95416.28;;;10.04;80.35
31346;BME280;21711;49.708;18.568;2024-02-23T01:32:57;95407.06;;;10.19;80.15
31346;BME280;21711;49.708;18.568;2024-02-23T01:35:25;95407.06;;;10.19;79.80
31346;BME280;21711;49.708;18.568;2024-02-23T01:37:53;95391.88;;;10.07;79.98
31346;BME280;21711;49.708;18.568;2024-02-23T01:40:21;95390.38;;;9.97;80.87
31346;BME280;21711;49.708;18.568;2024-02-23T01:42:48;95392.34;;;10.09;81.59
31346;BME280;21711;49.708;18.568;2024-02-23T01:45:15;95397.66;;;9.92;81.62
31346;BME280;21711;49.708;18.568;2024-02-23T01:47:43;95387.41;;;9.90;82.13
31346;BME280;21711;49.708;18.568;2024-02-23T01:50:10;95387.59;;;9.94;81.77
31346;BME280;21711;49.708;18.568;2024-02-23T01:52:40;95394.41;;;9.95;81.91
31346;BME280;21711;49.708;18.568;2024-02-23T01:55:07;95390.97;;;10.03;81.90
31346;BME280;21711;49.708;18.568;2024-02-23T01:57:35;95383.38;;;9.93;82.01
31346;BME280;21711;49.708;18.568;2024-02-23T02:00:18;95388.22;;;9.82;82.63
31346;BME280;21711;49.708;18.568;2024-02-23T02:02:52;95395.34;;;9.81;82.84
31346;BME280;21711;49.708;18.568;2024-02-23T02:05:20;95382.31;;;9.94;81.99
31346;BME280;21711;49.708;18.568;2024-02-23T02:07:53;95389.13;;;9.95;82.57
31346;BME280;21711;49.708;18.568;2024-02-23T02:10:21;95397.19;;;9.98;82.15
31346;BME280;21711;49.708;18.568;2024-02-23T02:12:48;95385.69;;;10.03;82.65
31346;BME280;21711;49.708;18.568;2024-02-23T02:15:16;95394.28;;;9.73;83.65
31346;BME280;21711;49.708;18.568;2024-02-23T02:17:44;95393.47;;;9.91;83.59
31346;BME280;21711;49.708;18.568;2024-02-23T02:20:13;95379.22;;;9.74;84.71
31346;BME280;21711;49.708;18.568;2024-02-23T02:22:41;95384.06;;;9.63;85.61
31346;BME280;21711;49.708;18.568;2024-02-23T02:25:08;95392.25;;;9.53;85.52
31346;BME280;21711;49.708;18.568;2024-02-23T02:27:35;95381.41;;;9.72;85.45
31346;BME280;21711;49.708;18.568;2024-02-23T02:30:03;95387.91;;;9.57;85.89
31346;BME280;21711;49.708;18.568;2024-02-23T02:32:31;95387.28;;;9.69;84.71
31346;BME280;21711;49.708;18.568;2024-02-23T02:35:04;95382.94;;;9.82;83.15
31346;BME280;21711;49.708;18.568;2024-02-23T02:37:31;95385.44;;;9.69;84.58
31346;BME280;21711;49.708;18.568;2024-02-23T02:39:59;95385.13;;;9.62;85.35
31346;BME280;21711;49.708;18.568;2024-02-23T02:42:26;95385.28;;;9.57;86.48
31346;BME280;21711;49.708;18.568;2024-02-23T02:44:55;95382.03;;;9.60;86.62
31346;BME280;21711;49.708;18.568;2024-02-23T02:47:23;95387.75;;;9.80;85.27
31346;BME280;21711;49.708;18.568;2024-02-23T02:49:51;95385.13;;;9.71;85.73
31346;BME280;21711;49.708;18.568;2024-02-23T02:52:19;95392.09;;;9.76;83.87
31346;BME280;21711;49.708;18.568;2024-02-23T02:54:48;95399.22;;;9.93;82.79
31346;BME280;21711;49.708;18.568;2024-02-23T02:57:16;95406.34;;;10.10;81.92
31346;BME280;21711;49.708;18.568;2024-02-23T02:59:43;95398.81;;;10.30;80.76
31346;BME280;21711;49.708;18.568;2024-02-23T03:02:12;95406.63;;;10.17;80.66
31346;BME280;21711;49.708;18.568;2024-02-23T03:04:46;95414.09;;;10.15;81.99
31346;BME280;21711;49.708;18.568;2024-02-23T03:07:13;95421.66;;;10.34;82.86
31346;BME280;21711;49.708;18.568;2024-02-23T03:09:41;95422.44;;;10.35;82.66
31346;BME280;21711;49.708;18.568;2024-02-23T03:12:09;95433.00;;;10.35;83.27
31346;BME280;21711;49.708;18.568;2024-02-23T03:14:37;95433.31;;;10.33;85.90
31346;BME280;21711;49.708;18.568;2024-02-23T03:17:08;95430.84;;;10.19;87.84
31346;BME280;21711;49.708;18.568;2024-02-23T03:19:37;95443.44;;;10.22;86.82
31346;BME280;21711;49.708;18.568;2024-02-23T03:22:05;95435.22;;;10.15;86.57
31346;BME280;21711;49.708;18.568;2024-02-23T03:24:33;95433.41;;;9.98;95.55
31346;BME280;21711;49.708;18.568;2024-02-23T03:27:00;95434.50;;;9.88;94.07
31346;BME280;21711;49.708;18.568;2024-02-23T03:29:28;95441.47;;;9.93;96.76
31346;BME280;21711;49.708;18.568;2024-02-23T03:31:57;95449.56;;;9.70;100.00
31346;BME280;21711;49.708;18.568;2024-02-23T03:34:25;95453.75;;;9.89;93.54
31346;BME280;21711;49.708;18.568;2024-02-23T03:36:52;95459.78;;;10.07;94.82
31346;BME280;21711;49.708;18.568;2024-02-23T03:39:20;95474.06;;;9.97;94.58
31346;BME280;21711;49.708;18.568;2024-02-23T03:41:47;95461.19;;;9.95;97.54
31346;BME280;21711;49.708;18.568;2024-02-23T03:44:14;95474.72;;;9.94;99.54
31346;BME280;21711;49.708;18.568;2024-02-23T03:46:42;95470.66;;;9.87;99.82
31346;BME280;21711;49.708;18.568;2024-02-23T03:49:09;95472.53;;;9.60;98.28
31346;BME280;21711;49.708;18.568;2024-02-23T03:51:36;95465.09;;;9.80;99.59
31346;BME280;21711;49.708;18.568;2024-02-23T03:54:06;95469.59;;;9.71;99.91
31346;BME280;21711;49.708;18.568;2024-02-23T03:56:41;95475.78;;;9.66;100.00
31346;BME280;21711;49.708;18.568;2024-02-23T03:59:09;95473.16;;;9.49;100.00
31346;BME280;21711;49.708;18.568;2024-02-23T04:01:38;95470.81;;;9.47;100.00
31346;BME280;21711;49.708;18.568;2024-02-23T04:04:07;95475.78;;;9.57;100.00
31346;BME280;21711;49.708;18.568;2024-02-23T04:06:34;95475.78;;;9.57;100.00
31346;BME280;21711;49.708;18.568;2024-02-23T04:09:02;95489.13;;;9.52;100.00
31346;BME280;21711;49.708;18.568;2024-02-23T04:11:33;95477.78;;;9.52;100.00
31346;BME280;21711;49.708;18.568;2024-02-23T04:14:01;95484.31;;;9.37;100.00
31346;BME280;21711;49.708;18.568;2024-02-23T04:16:29;95488.97;;;9.49;100.00
31346;BME280;21711;49.708;18.568;2024-02-23T04:18:56;95493.03;;;9.64;100.00
31346;BME280;21711;49.708;18.568;2024-02-23T04:21:24;95499.09;;;9.64;100.00
31346;BME280;21711;49.708;18.568;2024-02-23T04:23:52;95505.13;;;9.47;100.00
31346;BME280;21711;49.708;18.568;2024-02-23T04:26:19;95499.66;;;9.34;100.00
31346;BME280;21711;49.708;18.568;2024-02-23T04:28:47;95506.63;;;9.30;100.00
31346;BME280;21711;49.708;18.568;2024-02-23T04:31:14;95514.97;;;9.24;100.00
31346;BME280;21711;49.708;18.568;2024-02-23T04:33:42;95511.44;;;9.28;100.00
31346;BME280;21711;49.708;18.568;2024-02-23T04:36:09;95510.19;;;9.34;100.00
31346;BME280;21711;49.708;18.568;2024-02-23T04:38:36;95506.19;;;9.37;100.00
31346;BME280;21711;49.708;18.568;2024-02-23T04:41:04;95505.88;;;9.39;100.00
31346;BME280;21711;49.708;18.568;2024-02-23T04:43:32;95510.19;;;9.34;100.00
31346;BME280;21711;49.708;18.568;2024-02-23T04:46:00;95496.06;;;9.30;100.00
31346;BME280;21711;49.708;18.568;2024-02-23T04:48:27;95509.16;;;9.44;100.00
31346;BME280;21711;49.708;18.568;2024-02-23T04:50:55;95510.06;;;9.31;100.00
31346;BME280;21711;49.708;18.568;2024-02-23T04:53:22;95507.84;;;9.15;100.00
31346;BME280;21711;49.708;18.568;2024-02-23T04:55:49;95518.09;;;9.26;100.00
31346;BME280;21711;49.708;18.568;2024-02-23T04:58:16;95518.72;;;9.23;100.00
31346;BME280;21711;49.708;18.568;2024-02-23T05:00:44;95521.47;;;9.08;100.00
31346;BME280;21711;49.708;18.568;2024-02-23T05:03:11;95522.72;;;9.11;100.00
31346;BME280;21711;49.708;18.568;2024-02-23T05:05:39;95515.09;;;9.01;100.00
31346;BME280;21711;49.708;18.568;2024-02-23T05:08:07;95509.03;;;9.00;100.00
31346;BME280;21711;49.708;18.568;2024-02-23T05:10:34;95509.00;;;8.91;100.00
31346;BME280;21711;49.708;18.568;2024-02-23T05:13:02;95513.06;;;8.98;100.00
31346;BME280;21711;49.708;18.568;2024-02-23T05:15:29;95506.97;;;8.88;100.00
31346;BME280;21711;49.708;18.568;2024-02-23T05:17:57;95514.28;;;8.91;100.00
31346;BME280;21711;49.708;18.568;2024-02-23T05:20:24;95515.03;;;8.92;100.00
31346;BME280;21711;49.708;18.568;2024-02-23T05:22:52;95520.31;;;8.92;100.00
31346;BME280;21711;49.708;18.568;2024-02-23T05:25:19;95517.50;;;8.88;100.00
31346;BME280;21711;49.708;18.568;2024-02-23T05:27:47;95511.16;;;8.89;100.00
31346;BME280;21711;49.708;18.568;2024-02-23T05:30:15;95522.06;;;8.97;100.00
31346;BME280;21711;49.708;18.568;2024-02-23T05:32:43;95519.41;;;8.97;100.00
31346;BME280;21711;49.708;18.568;2024-02-23T05:35:11;95531.59;;;9.15;100.00
31346;BME280;21711;49.708;18.568;2024-02-23T05:37:39;95523.97;;;9.23;100.00
31346;BME280;21711;49.708;18.568;2024-02-23T05:40:07;95523.81;;;9.19;100.00
31346;BME280;21711;49.708;18.568;2024-02-23T05:42:37;95529.69;;;9.16;100.00
31346;BME280;21711;49.708;18.568;2024-02-23T05:45:08;95538.13;;;9.27;100.00
31346;BME280;21711;49.708;18.568;2024-02-23T05:47:39;95539.50;;;9.24;100.00
31346;BME280;21711;49.708;18.568;2024-02-23T05:50:11;95550.72;;;9.30;100.00
31346;BME280;21711;49.708;18.568;2024-02-23T05:52:38;95538.06;;;9.09;100.00
31346;BME280;21711;49.708;18.568;2024-02-23T05:55:07;95550.97;;;9.19;100.00
31346;BME280;21711;49.708;18.568;2024-02-23T05:57:35;95548.53;;;9.32;100.00
31346;BME280;21711;49.708;18.568;2024-02-23T06:00:04;95553.81;;;9.32;100.00
31346;BME280;21711;49.708;18.568;2024-02-23T06:02:38;95559.50;;;9.16;100.00
31346;BME280;21711;49.708;18.568;2024-02-23T06:05:06;95562.75;;;9.13;100.00
31346;BME280;21711;49.708;18.568;2024-02-23T06:07:35;95575.03;;;9.18;100.00
31346;BME280;21711;49.708;18.568;2024-02-23T06:10:04;95584.66;;;9.23;100.00
31346;BME280;21711;49.708;18.568;2024-02-23T06:12:32;95588.84;;;9.24;100.00
31346;BME280;21711;49.708;18.568;2024-02-23T06:14:59;95592.13;;;9.29;100.00
31346;BME280;21711;49.708;18.568;2024-02-23T06:17:27;95597.91;;;9.40;100.00
31346;BME280;21711;49.708;18.568;2024-02-23T06:19:55;95607.81;;;9.34;100.00
31346;BME280;21711;49.708;18.568;2024-02-23T06:22:24;95613.00;;;9.49;100.00
31346;BME280;21711;49.708;18.568;2024-02-23T06:24:52;95615.63;;;9.49;100.00
31346;BME280;21711;49.708;18.568;2024-02-23T06:27:20;95622.56;;;9.36;100.00
31346;BME280;21711;49.708;18.568;2024-02-23T06:29:49;95624.94;;;9.14;100.00
31346;BME280;21711;49.708;18.568;2024-02-23T06:32:17;95635.72;;;9.27;100.00
31346;BME280;21711;49.708;18.568;2024-02-23T06:34:45;95652.78;;;9.29;100.00
31346;BME280;21711;49.708;18.568;2024-02-23T06:37:13;95648.78;;;9.32;100.00
31346;BME280;21711;49.708;18.568;2024-02-23T06:39:40;95665.41;;;9.10;100.00
31346;BME280;21711;49.708;18.568;2024-02-23T06:42:08;95667.38;;;9.27;100.00
31346;BME280;21711;49.708;18.568;2024-02-23T06:44:35;95668.72;;;9.47;100.00
31346;BME280;21711;49.708;18.568;2024-02-23T06:47:03;95674.59;;;9.44;100.00
31346;BME280;21711;49.708;18.568;2024-02-23T06:49:31;95678.59;;;9.41;100.00
31346;BME280;21711;49.708;18.568;2024-02-23T06:51:58;95692.78;;;9.23;100.00
31346;BME280;21711;49.708;18.568;2024-02-23T06:54:25;95706.22;;;9.12;100.00
31346;BME280;21711;49.708;18.568;2024-02-23T06:56:53;95708.50;;;9.05;100.00
31346;BME280;21711;49.708;18.568;2024-02-23T06:59:21;95707.78;;;8.67;100.00
31346;BME280;21711;49.708;18.568;2024-02-23T07:01:51;95710.63;;;8.94;100.00
31346;BME280;21711;49.708;18.568;2024-02-23T07:04:19;95722.41;;;8.97;100.00
31346;BME280;21711;49.708;18.568;2024-02-23T07:06:47;95723.72;;;9.08;100.00
31346;BME280;21711;49.708;18.568;2024-02-23T07:09:14;95726.34;;;9.31;100.00
31346;BME280;21711;49.708;18.568;2024-02-23T07:11:42;95724.31;;;9.28;100.00
31346;BME280;21711;49.708;18.568;2024-02-23T07:14:11;95726.66;;;9.29;100.00
31346;BME280;21711;49.708;18.568;2024-02-23T07:16:41;95728.28;;;9.16;100.00
31346;BME280;21711;49.708;18.568;2024-02-23T07:19:09;95725.84;;;9.29;100.00
31346;BME280;21711;49.708;18.568;2024-02-23T07:21:37;95722.72;;;9.18;100.00
31346;BME280;21711;49.708;18.568;2024-02-23T07:24:09;95731.38;;;9.41;100.00
31346;BME280;21711;49.708;18.568;2024-02-23T07:26:36;95731.22;;;9.38;100.00
31346;BME280;21711;49.708;18.568;2024-02-23T07:29:04;95730.25;;;9.33;100.00
31346;BME280;21711;49.708;18.568;2024-02-23T07:31:31;95731.25;;;9.46;100.00
31346;BME280;21711;49.708;18.568;2024-02-23T07:33:59;95734.72;;;9.56;100.00
31346;BME280;21711;49.708;18.568;2024-02-23T07:36:27;95732.66;;;9.53;100.00
31346;BME280;21711;49.708;18.568;2024-02-23T07:38:55;95731.19;;;9.69;100.00
31346;BME280;21711;49.708;18.568;2024-02-23T07:41:22;95744.94;;;9.89;100.00
31346;BME280;21711;49.708;18.568;2024-02-23T07:43:49;95740.97;;;10.00;100.00
31346;BME280;21711;49.708;18.568;2024-02-23T07:46:17;95740.19;;;10.09;100.00
31346;BME280;21711;49.708;18.568;2024-02-23T07:48:45;95740.19;;;10.09;100.00
31346;BME280;21711;49.708;18.568;2024-02-23T07:51:12;95738.53;;;10.22;100.00
31346;BME280;21711;49.708;18.568;2024-02-23T07:53:40;95736.50;;;10.19;100.00
31346;BME280;21711;49.708;18.568;2024-02-23T07:56:10;95736.50;;;10.19;100.00
31346;BME280;21711;49.708;18.568;2024-02-23T07:58:38;95749.56;;;10.24;100.00
31346;BME280;21711;49.708;18.568;2024-02-23T08:01:06;95744.44;;;10.19;100.00
31346;BME280;21711;49.708;18.568;2024-02-23T08:03:33;95740.84;;;10.23;100.00
31346;BME280;21711;49.708;18.568;2024-02-23T08:06:00;95738.53;;;10.22;100.00
31346;BME280;21711;49.708;18.568;2024-02-23T08:08:30;95741.94;;;10.22;100.00
31346;BME280;21711;49.708;18.568;2024-02-23T08:11:00;95742.44;;;10.24;100.00
31346;BME280;21711;49.708;18.568;2024-02-23T08:13:29;95731.97;;;10.10;100.00
31346;BME280;21711;49.708;18.568;2024-02-23T08:15:57;95740.19;;;10.09;100.00
31346;BME280;21711;49.708;18.568;2024-02-23T08:18:25;95746.91;;;10.24;100.00
31346;BME280;21711;49.708;18.568;2024-02-23T08:20:54;95746.31;;;10.36;100.00
31346;BME280;21711;49.708;18.568;2024-02-23T08:23:21;95749.41;;;10.29;100.00
31346;BME280;21711;49.708;18.568;2024-02-23T08:25:50;95746.75;;;10.20;100.00
31346;BME280;21711;49.708;18.568;2024-02-23T08:28:17;95753.91;;;10.20;100.00
31346;BME280;21711;49.708;18.568;2024-02-23T08:30:45;95763.06;;;10.22;100.00
31346;BME280;21711;49.708;18.568;2024-02-23T08:33:12;95766.31;;;10.19;100.00
31346;BME280;21711;49.708;18.568;2024-02-23T08:35:40;95764.91;;;10.13;100.00
31346;BME280;21711;49.708;18.568;2024-02-23T08:38:07;95763.97;;;10.09;100.00
31346;BME280;21711;49.708;18.568;2024-02-23T08:40:35;95761.63;;;10.07;100.00
31346;BME280;21711;49.708;18.568;2024-02-23T08:43:02;95765.56;;;10.19;100.00
31346;BME280;21711;49.708;18.568;2024-02-23T08:45:30;95772.25;;;10.25;100.00
31346;BME280;21711;49.708;18.568;2024-02-23T08:47:57;95769.47;;;10.30;100.00
31346;BME280;21711;49.708;18.568;2024-02-23T08:50:25;95774.75;;;10.30;100.00
31346;BME280;21711;49.708;18.568;2024-02-23T08:52:52;95775.19;;;10.23;100.00
31346;BME280;21711;49.708;18.568;2024-02-23T08:55:19;95780.59;;;10.09;100.00
31346;BME280;21711;49.708;18.568;2024-02-23T08:57:48;95784.63;;;10.07;100.00
31346;BME280;21711;49.708;18.568;2024-02-23T09:00:16;95783.59;;;10.25;100.00
31346;BME280;21711;49.708;18.568;2024-02-23T09:02:44;95784.72;;;10.42;100.00
31346;BME280;21711;49.708;18.568;2024-02-23T09:05:12;95794.63;;;10.27;100.00
31346;BME280;21711;49.708;18.568;2024-02-23T09:07:39;95798.78;;;10.11;100.00
31346;BME280;21711;49.708;18.568;2024-02-23T09:10:08;95807.69;;;10.24;100.00
31346;BME280;21711;49.708;18.568;2024-02-23T09:12:35;95809.06;;;10.21;100.00
31346;BME280;21711;49.708;18.568;2024-02-23T09:15:03;95817.56;;;10.09;100.00
31346;BME280;21711;49.708;18.568;2024-02-23T09:17:32;95822.88;;;10.18;100.00
31346;BME280;21711;49.708;18.568;2024-02-23T09:19:59;95825.84;;;10.48;100.00
31346;BME280;21711;49.708;18.568;2024-02-23T09:22:27;95825.00;;;10.39;100.00
31346;BME280;21711;49.708;18.568;2024-02-23T09:24:55;95825.56;;;10.68;100.00
31346;BME280;21711;49.708;18.568;2024-02-23T09:27:23;95831.47;;;10.73;100.00
31346;BME280;21711;49.708;18.568;2024-02-23T09:29:51;95833.03;;;10.83;100.00
31346;BME280;21711;49.708;18.568;2024-02-23T09:32:18;95834.34;;;11.12;100.00
31346;BME280;21711;49.708;18.568;2024-02-23T09:34:45;95834.63;;;11.02;100.00
31346;BME280;21711;49.708;18.568;2024-02-23T09:37:13;95844.88;;;11.03;100.00
31346;BME280;21711;49.708;18.568;2024-02-23T09:39:40;95833.03;;;10.83;100.00
31346;BME280;21711;49.708;18.568;2024-02-23T09:42:10;95837.81;;;10.55;100.00
31346;BME280;21711;49.708;18.568;2024-02-23T09:44:41;95834.06;;;10.56;100.00
31346;BME280;21711;49.708;18.568;2024-02-23T09:47:11;95834.66;;;10.44;100.00
31346;BME280;21711;49.708;18.568;2024-02-23T09:49:40;95838.66;;;10.32;100.00
31346;BME280;21711;49.708;18.568;2024-02-23T09:52:08;95833.16;;;10.60;100.00
31346;BME280;21711;49.708;18.568;2024-02-23T09:54:39;95830.88;;;10.76;100.00
31346;BME280;21711;49.708;18.568;2024-02-23T09:57:08;95826.34;;;10.86;100.00
31346;BME280;21711;49.708;18.568;2024-02-23T09:59:37;95836.81;;;10.91;100.00
31346;BME280;21711;49.708;18.568;2024-02-23T10:02:09;95835.41;;;10.94;100.00
31346;BME280;21711;49.708;18.568;2024-02-23T10:04:39;95843.78;;;10.87;100.00
31346;BME280;21711;49.708;18.568;2024-02-23T10:07:08;95844.22;;;10.71;100.00
31346;BME280;21711;49.708;18.568;2024-02-23T10:09:36;95844.53;;;10.70;100.00
31346;BME280;21711;49.708;18.568;2024-02-23T10:12:04;95846.00;;;11.02;100.00
31346;BME280;21711;49.708;18.568;2024-02-23T10:14:31;95844.75;;;10.91;100.00
31346;BME280;21711;49.708;18.568;2024-02-23T10:16:59;95847.50;;;10.68;100.00
31346;BME280;21711;49.708;18.568;2024-02-23T10:19:29;95858.38;;;10.75;100.00
31346;BME280;21711;49.708;18.568;2024-02-23T10:21:57;95860.47;;;10.96;100.00
31346;BME280;21711;49.708;18.568;2024-02-23T10:24:25;95856.06;;;10.91;100.00
31346;BME280;21711;49.708;18.568;2024-02-23T10:26:53;95856.13;;;11.00;100.00
31346;BME280;21711;49.708;18.568;2024-02-23T10:29:20;95863.25;;;11.00;100.00
31346;BME280;21711;49.708;18.568;2024-02-23T10:31:51;95870.44;;;11.08;100.00
31346;BME280;21711;49.708;18.568;2024-02-23T10:34:20;95872.91;;;11.04;100.00
31346;BME280;21711;49.708;18.568;2024-02-23T10:36:48;95878.66;;;10.98;100.00
31346;BME280;21711;49.708;18.568;2024-02-23T10:39:18;95872.88;;;10.87;100.00
31346;BME280;21711;49.708;18.568;2024-02-23T10:42:02;95869.44;;;10.86;100.00
31346;BME280;21711;49.708;18.568;2024-02-23T10:44:31;95864.31;;;10.81;100.00
31346;BME280;21711;49.708;18.568;2024-02-23T10:46:59;95859.34;;;10.88;100.00
31346;BME280;21711;49.708;18.568;2024-02-23T10:49:28;95860.88;;;10.81;100.00
31346;BME280;21711;49.708;18.568;2024-02-23T10:51:56;95868.00;;;10.71;100.00
31346;BME280;21711;49.708;18.568;2024-02-23T10:54:24;95869.75;;;10.76;100.00
31346;BME280;21711;49.708;18.568;2024-02-23T10:56:52;95874.94;;;10.99;100.00
31346;BME280;21711;49.708;18.568;2024-02-23T10:59:23;95869.34;;;11.36;100.00
31346;BME280;21711;49.708;18.568;2024-02-23T11:01:54;95877.44;;;11.39;100.00
31346;BME280;21711;49.708;18.568;2024-02-23T11:04:26;95875.28;;;11.41;100.00
31346;BME280;21711;49.708;18.568;2024-02-23T11:06:55;95869.19;;;11.58;100.00
31346;BME280;21711;49.708;18.568;2024-02-23T11:09:26;95856.72;;;11.32;100.00
31346;BME280;21711;49.708;18.568;2024-02-23T11:11:58;95859.38;;;11.50;100.00
31346;BME280;21711;49.708;18.568;2024-02-23T11:14:45;95864.69;;;11.50;100.00
31346;BME280;21711;49.708;18.568;2024-02-23T11:17:19;95862.34;;;11.57;100.00
31346;BME280;21711;49.708;18.568;2024-02-23T11:19:50;95870.13;;;11.63;100.00
31346;BME280;21711;49.708;18.568;2024-02-23T11:22:46;95884.44;;;11.79;100.00
31346;BME280;21711;49.708;18.568;2024-02-23T11:25:18;95875.34;;;12.07;100.00
31346;BME280;21711;49.708;18.568;2024-02-23T11:27:49;95878.19;;;11.84;100.00
31346;BME280;21711;49.708;18.568;2024-02-23T11:30:18;95885.19;;;12.06;100.00
31346;BME280;21711;49.708;18.568;2024-02-23T11:32:49;95879.56;;;11.99;100.00
31346;BME280;21711;49.708;18.568;2024-02-23T11:35:25;95893.44;;;11.87;100.00
31346;BME280;21711;49.708;18.568;2024-02-23T11:37:56;95895.47;;;11.90;100.00
31346;BME280;21711;49.708;18.568;2024-02-23T11:40:32;95892.06;;;11.63;100.00
31346;BME280;21711;49.708;18.568;2024-02-23T11:42:59;95903.75;;;11.44;100.00
31346;BME280;21711;49.708;18.568;2024-02-23T11:45:31;95913.72;;;11.39;100.00
31346;BME280;21711;49.708;18.568;2024-02-23T11:47:59;95914.50;;;11.57;100.00
31346;BME280;21711;49.708;18.568;2024-02-23T11:50:27;95909.66;;;11.59;100.00
31346;BME280;21711;49.708;18.568;2024-02-23T11:52:54;95896.13;;;11.78;100.00
31346;BME280;21711;49.708;18.568;2024-02-23T11:55:22;95894.41;;;11.74;100.00
31346;BME280;21711;49.708;18.568;2024-02-23T11:57:51;95885.97;;;11.80;100.00
31346;BME280;21711;49.708;18.568;2024-02-23T12:00:31;95877.41;;;11.83;100.00
31346;BME280;21711;49.708;18.568;2024-02-23T12:02:59;95868.25;;;11.72;100.00
31346;BME280;21711;49.708;18.568;2024-02-23T12:05:27;95879.16;;;11.70;100.00
31346;BME280;21711;49.708;18.568;2024-02-23T12:07:55;95892.09;;;11.72;100.00
31346;BME280;21711;49.708;18.568;2024-02-23T12:10:24;95889.75;;;11.70;100.00
31346;BME280;21711;49.708;18.568;2024-02-23T12:12:54;95882.09;;;11.69;100.00
31346;BME280;21711;49.708;18.568;2024-02-23T12:15:21;95882.56;;;11.71;100.00
31346;BME280;21711;49.708;18.568;2024-02-23T12:17:49;95891.91;;;11.77;100.00
31346;BME280;21711;49.708;18.568;2024-02-23T12:20:18;95894.59;;;11.51;100.00
31346;BME280;21711;49.708;18.568;2024-02-23T12:22:47;95897.53;;;11.31;100.00
31346;BME280;21711;49.708;18.568;2024-02-23T12:25:14;95893.00;;;11.14;100.00
31346;BME280;21711;49.708;18.568;2024-02-23T12:27:43;95889.84;;;10.95;100.00
31346;BME280;21711;49.708;18.568;2024-02-23T12:30:14;95888.34;;;10.53;100.00
31346;BME280;21711;49.708;18.568;2024-02-23T12:32:42;95893.13;;;10.19;100.00
31346;BME280;21711;49.708;18.568;2024-02-23T12:35:14;95887.28;;;9.99;100.00
31346;BME280;21711;49.708;18.568;2024-02-23T12:37:43;95889.06;;;9.90;100.00
31346;BME280;21711;49.708;18.568;2024-02-23T12:40:12;95891.97;;;10.03;100.00
31346;BME280;21711;49.708;18.568;2024-02-23T12:42:40;95887.06;;;9.87;100.00
31346;BME280;21711;49.708;18.568;2024-02-23T12:45:08;95881.09;;;10.04;100.00
31346;BME280;21711;49.708;18.568;2024-02-23T12:47:35;95876.25;;;9.97;100.00
31346;BME280;21711;49.708;18.568;2024-02-23T12:50:03;95873.44;;;9.94;100.00
31346;BME280;21711;49.708;18.568;2024-02-23T12:52:33;95863.63;;;9.94;100.00
31346;BME280;21711;49.708;18.568;2024-02-23T12:55:00;95875.00;;;9.95;100.00